sensor_id;sensor_type;location;lat;lon;timestamp;temperature;humidity
1075;DHT22;526;51.392;12.448;2022-07-22T00:01:28;22.70;92.10
1075;DHT22;526;51.392;12.448;2022-07-22T00:03:53;22.70;92.10
1075;DHT22;526;51.392;12.448;2022-07-22T00:06:19;22.60;92.20
1075;DHT22;526;51.392;12.448;2022-07-22T00:08:45;22.60;92.30
1075;DHT22;526;51.392;12.448;2022-07-22T00:11:10;22.60;92.50
1075;DHT22;526;51.392;12.448;2022-07-22T00:13:36;22.50;92.60
1075;DHT22;526;51.392;12.448;2022-07-22T00:16:02;22.50;92.70
1075;DHT22;526;51.392;12.448;2022-07-22T00:18:27;22.50;92.90
1075;DHT22;526;51.392;12.448;2022-07-22T00:20:53;22.50;92.80
1075;DHT22;526;51.392;12.448;2022-07-22T00:23:19;22.50;92.90
1075;DHT22;526;51.392;12.448;2022-07-22T00:25:45;22.50;92.90
1075;DHT22;526;51.392;12.448;2022-07-22T00:28:10;22.50;93.10
1075;DHT22;526;51.392;12.448;2022-07-22T00:30:36;22.50;93.00
1075;DHT22;526;51.392;12.448;2022-07-22T00:33:02;22.50;93.10
1075;DHT22;526;51.392;12.448;2022-07-22T00:35:28;22.40;93.30
1075;DHT22;526;51.392;12.448;2022-07-22T00:37:54;22.40;93.30
1075;DHT22;526;51.392;12.448;2022-07-22T00:40:19;22.40;93.30
1075;DHT22;526;51.392;12.448;2022-07-22T00:42:45;22.40;93.50
1075;DHT22;526;51.392;12.448;2022-07-22T00:45:10;22.40;93.50
1075;DHT22;526;51.392;12.448;2022-07-22T00:47:36;22.30;93.60
1075;DHT22;526;51.392;12.448;2022-07-22T00:50:03;22.30;93.50
1075;DHT22;526;51.392;12.448;2022-07-22T00:52:31;22.30;93.60
1075;DHT22;526;51.392;12.448;2022-07-22T00:54:58;22.20;93.70
1075;DHT22;526;51.392;12.448;2022-07-22T00:57:24;22.20;94.00
1075;DHT22;526;51.392;12.448;2022-07-22T00:59:50;22.10;94.10
1075;DHT22;526;51.392;12.448;2022-07-22T01:02:19;22.00;94.40
1075;DHT22;526;51.392;12.448;2022-07-22T01:04:48;22.00;94.60
1075;DHT22;526;51.392;12.448;2022-07-22T01:07:14;21.90;94.90
1075;DHT22;526;51.392;12.448;2022-07-22T01:09:44;21.70;95.20
1075;DHT22;526;51.392;12.448;2022-07-22T01:12:10;21.70;95.40
1075;DHT22;526;51.392;12.448;2022-07-22T01:14:36;21.70;95.50
1075;DHT22;526;51.392;12.448;2022-07-22T01:17:02;21.60;95.60
1075;DHT22;526;51.392;12.448;2022-07-22T01:19:28;21.60;95.70
1075;DHT22;526;51.392;12.448;2022-07-22T01:21:54;21.60;95.90
1075;DHT22;526;51.392;12.448;2022-07-22T01:24:20;21.60;95.80
1075;DHT22;526;51.392;12.448;2022-07-22T01:26:45;21.50;95.90
1075;DHT22;526;51.392;12.448;2022-07-22T01:29:11;21.50;95.90
1075;DHT22;526;51.392;12.448;2022-07-22T01:31:37;21.50;96.10
1075;DHT22;526;51.392;12.448;2022-07-22T01:34:02;21.40;96.10
1075;DHT22;526;51.392;12.448;2022-07-22T01:36:28;21.30;96.40
1075;DHT22;526;51.392;12.448;2022-07-22T01:38:56;21.30;96.50
1075;DHT22;526;51.392;12.448;2022-07-22T01:41:21;21.30;96.80
1075;DHT22;526;51.392;12.448;2022-07-22T01:43:47;21.20;96.90
1075;DHT22;526;51.392;12.448;2022-07-22T01:46:13;21.30;96.80
1075;DHT22;526;51.392;12.448;2022-07-22T01:48:40;21.30;96.70
1075;DHT22;526;51.392;12.448;2022-07-22T01:51:06;21.30;96.90
1075;DHT22;526;51.392;12.448;2022-07-22T01:53:32;21.30;96.90
1075;DHT22;526;51.392;12.448;2022-07-22T01:55:57;21.30;97.00
1075;DHT22;526;51.392;12.448;2022-07-22T01:58:23;21.30;97.00
1075;DHT22;526;51.392;12.448;2022-07-22T02:00:49;21.30;96.90
1075;DHT22;526;51.392;12.448;2022-07-22T02:03:15;21.30;96.90
1075;DHT22;526;51.392;12.448;2022-07-22T02:05:40;21.20;97.20
1075;DHT22;526;51.392;12.448;2022-07-22T02:08:09;21.20;97.30
1075;DHT22;526;51.392;12.448;2022-07-22T02:10:35;21.20;97.30
1075;DHT22;526;51.392;12.448;2022-07-22T02:13:02;21.10;97.30
1075;DHT22;526;51.392;12.448;2022-07-22T02:15:28;21.10;97.30
1075;DHT22;526;51.392;12.448;2022-07-22T02:17:54;21.10;97.30
1075;DHT22;526;51.392;12.448;2022-07-22T02:20:20;21.10;97.30
1075;DHT22;526;51.392;12.448;2022-07-22T02:22:46;21.10;97.30
1075;DHT22;526;51.392;12.448;2022-07-22T02:25:12;21.00;97.30
1075;DHT22;526;51.392;12.448;2022-07-22T02:27:39;21.00;97.30
1075;DHT22;526;51.392;12.448;2022-07-22T02:30:06;21.00;97.30
1075;DHT22;526;51.392;12.448;2022-07-22T02:32:32;21.00;97.30
1075;DHT22;526;51.392;12.448;2022-07-22T02:34:57;21.00;97.30
1075;DHT22;526;51.392;12.448;2022-07-22T02:37:23;20.90;97.30
1075;DHT22;526;51.392;12.448;2022-07-22T02:39:48;20.90;97.30
1075;DHT22;526;51.392;12.448;2022-07-22T02:42:14;20.80;97.30
1075;DHT22;526;51.392;12.448;2022-07-22T02:44:40;20.80;97.30
1075;DHT22;526;51.392;12.448;2022-07-22T02:47:05;20.80;97.30
1075;DHT22;526;51.392;12.448;2022-07-22T02:49:32;20.70;97.30
1075;DHT22;526;51.392;12.448;2022-07-22T02:51:57;20.70;97.30
1075;DHT22;526;51.392;12.448;2022-07-22T02:54:23;20.60;97.30
1075;DHT22;526;51.392;12.448;2022-07-22T02:56:48;20.60;97.30
1075;DHT22;526;51.392;12.448;2022-07-22T02:59:14;20.60;97.30
1075;DHT22;526;51.392;12.448;2022-07-22T03:01:40;20.50;97.30
1075;DHT22;526;51.392;12.448;2022-07-22T03:04:05;20.50;97.30
1075;DHT22;526;51.392;12.448;2022-07-22T03:06:31;20.50;97.30
1075;DHT22;526;51.392;12.448;2022-07-22T03:08:57;20.50;97.30
1075;DHT22;526;51.392;12.448;2022-07-22T03:11:22;20.50;97.30
1075;DHT22;526;51.392;12.448;2022-07-22T03:13:48;20.50;97.30
1075;DHT22;526;51.392;12.448;2022-07-22T03:16:14;20.50;97.30
1075;DHT22;526;51.392;12.448;2022-07-22T03:18:40;20.50;97.30
1075;DHT22;526;51.392;12.448;2022-07-22T03:21:06;20.50;97.30
1075;DHT22;526;51.392;12.448;2022-07-22T03:23:31;20.50;97.30
1075;DHT22;526;51.392;12.448;2022-07-22T03:25:57;20.40;97.30
1075;DHT22;526;51.392;12.448;2022-07-22T03:28:23;20.30;97.30
1075;DHT22;526;51.392;12.448;2022-07-22T03:30:48;20.30;97.30
1075;DHT22;526;51.392;12.448;2022-07-22T03:33:14;20.30;97.30
1075;DHT22;526;51.392;12.448;2022-07-22T03:35:40;20.30;97.30
1075;DHT22;526;51.392;12.448;2022-07-22T03:38:05;20.20;97.30
1075;DHT22;526;51.392;12.448;2022-07-22T03:40:31;20.20;97.30
1075;DHT22;526;51.392;12.448;2022-07-22T03:42:56;20.20;97.30
1075;DHT22;526;51.392;12.448;2022-07-22T03:45:22;20.10;97.30
1075;DHT22;526;51.392;12.448;2022-07-22T03:47:48;20.10;97.30
1075;DHT22;526;51.392;12.448;2022-07-22T03:50:13;20.10;97.30
1075;DHT22;526;51.392;12.448;2022-07-22T03:52:39;20.00;97.30
1075;DHT22;526;51.392;12.448;2022-07-22T03:55:05;20.00;97.30
1075;DHT22;526;51.392;12.448;2022-07-22T03:57:31;20.00;97.30
1075;DHT22;526;51.392;12.448;2022-07-22T03:59:56;20.00;97.30
1075;DHT22;526;51.392;12.448;2022-07-22T04:02:22;20.00;97.30
1075;DHT22;526;51.392;12.448;2022-07-22T04:04:47;20.00;97.30
1075;DHT22;526;51.392;12.448;2022-07-22T04:07:13;20.00;97.30
1075;DHT22;526;51.392;12.448;2022-07-22T04:09:38;20.00;97.30
1075;DHT22;526;51.392;12.448;2022-07-22T04:12:04;20.00;97.30
1075;DHT22;526;51.392;12.448;2022-07-22T04:14:30;20.00;97.30
1075;DHT22;526;51.392;12.448;2022-07-22T04:16:55;20.00;97.30
1075;DHT22;526;51.392;12.448;2022-07-22T04:19:21;20.00;97.30
1075;DHT22;526;51.392;12.448;2022-07-22T04:21:47;20.00;97.30
1075;DHT22;526;51.392;12.448;2022-07-22T04:24:12;20.00;97.30
1075;DHT22;526;51.392;12.448;2022-07-22T04:26:38;20.00;97.30
1075;DHT22;526;51.392;12.448;2022-07-22T04:29:04;20.00;97.30
1075;DHT22;526;51.392;12.448;2022-07-22T04:31:30;20.00;97.30
1075;DHT22;526;51.392;12.448;2022-07-22T04:33:57;20.00;97.30
1075;DHT22;526;51.392;12.448;2022-07-22T04:36:23;20.00;97.30
1075;DHT22;526;51.392;12.448;2022-07-22T04:38:48;20.00;97.30
1075;DHT22;526;51.392;12.448;2022-07-22T04:41:15;20.00;97.30
1075;DHT22;526;51.392;12.448;2022-07-22T04:43:40;20.10;97.30
1075;DHT22;526;51.392;12.448;2022-07-22T04:46:06;20.10;97.30
1075;DHT22;526;51.392;12.448;2022-07-22T04:48:32;20.10;97.30
1075;DHT22;526;51.392;12.448;2022-07-22T04:51:01;20.10;97.30
1075;DHT22;526;51.392;12.448;2022-07-22T04:53:28;20.10;97.30
1075;DHT22;526;51.392;12.448;2022-07-22T04:55:53;20.20;97.30
1075;DHT22;526;51.392;12.448;2022-07-22T04:58:19;20.20;97.30
1075;DHT22;526;51.392;12.448;2022-07-22T05:00:52;20.20;97.30
1075;DHT22;526;51.392;12.448;2022-07-22T05:03:18;20.20;97.30
1075;DHT22;526;51.392;12.448;2022-07-22T05:05:43;20.20;97.30
1075;DHT22;526;51.392;12.448;2022-07-22T05:08:09;20.20;97.30
1075;DHT22;526;51.392;12.448;2022-07-22T05:10:34;20.20;97.30
1075;DHT22;526;51.392;12.448;2022-07-22T05:13:00;20.20;97.30
1075;DHT22;526;51.392;12.448;2022-07-22T05:15:25;20.20;97.30
1075;DHT22;526;51.392;12.448;2022-07-22T05:17:51;20.20;97.30
1075;DHT22;526;51.392;12.448;2022-07-22T05:20:17;20.30;97.30
1075;DHT22;526;51.392;12.448;2022-07-22T05:22:42;20.30;97.30
1075;DHT22;526;51.392;12.448;2022-07-22T05:25:08;20.40;97.30
1075;DHT22;526;51.392;12.448;2022-07-22T05:27:34;20.50;97.30
1075;DHT22;526;51.392;12.448;2022-07-22T05:29:59;20.50;97.30
1075;DHT22;526;51.392;12.448;2022-07-22T05:32:25;20.50;97.30
1075;DHT22;526;51.392;12.448;2022-07-22T05:34:51;20.50;97.30
1075;DHT22;526;51.392;12.448;2022-07-22T05:37:16;20.60;97.30
1075;DHT22;526;51.392;12.448;2022-07-22T05:39:43;20.60;97.30
1075;DHT22;526;51.392;12.448;2022-07-22T05:42:09;20.70;97.30
1075;DHT22;526;51.392;12.448;2022-07-22T05:44:34;20.70;97.30
1075;DHT22;526;51.392;12.448;2022-07-22T05:47:00;20.70;97.30
1075;DHT22;526;51.392;12.448;2022-07-22T05:49:25;20.70;97.30
1075;DHT22;526;51.392;12.448;2022-07-22T05:51:52;20.70;97.30
1075;DHT22;526;51.392;12.448;2022-07-22T05:54:18;20.70;97.30
1075;DHT22;526;51.392;12.448;2022-07-22T05:56:44;20.80;97.30
1075;DHT22;526;51.392;12.448;2022-07-22T05:59:09;20.80;97.30
1075;DHT22;526;51.392;12.448;2022-07-22T06:01:35;20.80;97.30
1075;DHT22;526;51.392;12.448;2022-07-22T06:04:00;20.80;97.30
1075;DHT22;526;51.392;12.448;2022-07-22T06:06:26;20.90;97.30
1075;DHT22;526;51.392;12.448;2022-07-22T06:08:51;20.90;97.30
1075;DHT22;526;51.392;12.448;2022-07-22T06:11:17;20.90;97.30
1075;DHT22;526;51.392;12.448;2022-07-22T06:13:42;20.90;97.30
1075;DHT22;526;51.392;12.448;2022-07-22T06:16:08;21.00;97.30
1075;DHT22;526;51.392;12.448;2022-07-22T06:18:33;21.00;97.30
1075;DHT22;526;51.392;12.448;2022-07-22T06:20:59;21.10;97.30
1075;DHT22;526;51.392;12.448;2022-07-22T06:23:24;21.20;97.30
1075;DHT22;526;51.392;12.448;2022-07-22T06:25:50;21.20;97.30
1075;DHT22;526;51.392;12.448;2022-07-22T06:28:15;21.30;97.30
1075;DHT22;526;51.392;12.448;2022-07-22T06:30:41;21.40;97.30
1075;DHT22;526;51.392;12.448;2022-07-22T06:33:07;21.40;97.30
1075;DHT22;526;51.392;12.448;2022-07-22T06:35:33;21.50;97.30
1075;DHT22;526;51.392;12.448;2022-07-22T06:37:58;21.50;97.30
1075;DHT22;526;51.392;12.448;2022-07-22T06:40:24;21.60;97.30
1075;DHT22;526;51.392;12.448;2022-07-22T06:42:50;21.60;97.30
1075;DHT22;526;51.392;12.448;2022-07-22T06:45:15;21.60;97.30
1075;DHT22;526;51.392;12.448;2022-07-22T06:47:41;21.70;97.30
1075;DHT22;526;51.392;12.448;2022-07-22T06:50:07;21.70;97.30
1075;DHT22;526;51.392;12.448;2022-07-22T06:52:33;21.70;97.30
1075;DHT22;526;51.392;12.448;2022-07-22T06:54:59;21.70;97.30
1075;DHT22;526;51.392;12.448;2022-07-22T06:57:24;21.70;97.10
1075;DHT22;526;51.392;12.448;2022-07-22T06:59:50;21.70;97.30
1075;DHT22;526;51.392;12.448;2022-07-22T07:02:16;21.70;97.30
1075;DHT22;526;51.392;12.448;2022-07-22T07:04:42;21.80;97.30
1075;DHT22;526;51.392;12.448;2022-07-22T07:07:08;21.90;97.30
1075;DHT22;526;51.392;12.448;2022-07-22T07:09:34;22.00;97.20
1075;DHT22;526;51.392;12.448;2022-07-22T07:12:00;22.00;97.00
1075;DHT22;526;51.392;12.448;2022-07-22T07:14:25;22.00;97.00
1075;DHT22;526;51.392;12.448;2022-07-22T07:16:51;22.00;96.80
1075;DHT22;526;51.392;12.448;2022-07-22T07:19:17;22.00;96.90
1075;DHT22;526;51.392;12.448;2022-07-22T07:21:42;22.00;96.80
1075;DHT22;526;51.392;12.448;2022-07-22T07:24:08;22.00;96.90
1075;DHT22;526;51.392;12.448;2022-07-22T07:26:33;22.10;96.70
1075;DHT22;526;51.392;12.448;2022-07-22T07:28:59;22.30;96.80
1075;DHT22;526;51.392;12.448;2022-07-22T07:31:24;22.40;96.30
1075;DHT22;526;51.392;12.448;2022-07-22T07:33:50;22.50;96.10
1075;DHT22;526;51.392;12.448;2022-07-22T07:36:17;22.60;96.10
1075;DHT22;526;51.392;12.448;2022-07-22T07:38:42;22.60;95.50
1075;DHT22;526;51.392;12.448;2022-07-22T07:41:08;22.70;95.50
1075;DHT22;526;51.392;12.448;2022-07-22T07:43:34;22.60;94.70
1075;DHT22;526;51.392;12.448;2022-07-22T07:46:00;22.50;95.10
1075;DHT22;526;51.392;12.448;2022-07-22T07:48:26;22.40;95.00
1075;DHT22;526;51.392;12.448;2022-07-22T07:50:51;22.40;95.40
1075;DHT22;526;51.392;12.448;2022-07-22T07:53:17;22.50;95.30
1075;DHT22;526;51.392;12.448;2022-07-22T07:55:43;22.60;94.50
1075;DHT22;526;51.392;12.448;2022-07-22T07:58:09;22.60;94.80
1075;DHT22;526;51.392;12.448;2022-07-22T08:00:35;22.70;94.50
1075;DHT22;526;51.392;12.448;2022-07-22T08:03:03;22.90;94.30
1075;DHT22;526;51.392;12.448;2022-07-22T08:05:29;23.00;94.10
1075;DHT22;526;51.392;12.448;2022-07-22T08:07:55;23.20;94.40
1075;DHT22;526;51.392;12.448;2022-07-22T08:10:21;23.40;93.60
1075;DHT22;526;51.392;12.448;2022-07-22T08:12:48;23.50;92.50
1075;DHT22;526;51.392;12.448;2022-07-22T08:15:14;23.60;91.90
1075;DHT22;526;51.392;12.448;2022-07-22T08:17:39;23.70;92.40
1075;DHT22;526;51.392;12.448;2022-07-22T08:20:06;23.80;91.90
1075;DHT22;526;51.392;12.448;2022-07-22T08:22:31;23.90;91.10
1075;DHT22;526;51.392;12.448;2022-07-22T08:24:57;23.90;91.20
1075;DHT22;526;51.392;12.448;2022-07-22T08:27:24;24.10;91.00
1075;DHT22;526;51.392;12.448;2022-07-22T08:29:49;24.10;89.50
1075;DHT22;526;51.392;12.448;2022-07-22T08:32:15;24.20;89.70
1075;DHT22;526;51.392;12.448;2022-07-22T08:34:40;24.20;89.60
1075;DHT22;526;51.392;12.448;2022-07-22T08:37:06;24.30;89.40
1075;DHT22;526;51.392;12.448;2022-07-22T08:39:32;24.50;89.30
1075;DHT22;526;51.392;12.448;2022-07-22T08:41:59;24.60;88.60
1075;DHT22;526;51.392;12.448;2022-07-22T08:44:25;24.70;88.10
1075;DHT22;526;51.392;12.448;2022-07-22T08:46:53;24.60;87.80
1075;DHT22;526;51.392;12.448;2022-07-22T08:49:19;24.60;88.00
1075;DHT22;526;51.392;12.448;2022-07-22T08:51:45;24.60;88.10
1075;DHT22;526;51.392;12.448;2022-07-22T08:54:10;24.50;88.00
1075;DHT22;526;51.392;12.448;2022-07-22T08:56:36;24.50;87.80
1075;DHT22;526;51.392;12.448;2022-07-22T08:59:03;24.50;87.30
1075;DHT22;526;51.392;12.448;2022-07-22T09:01:29;24.40;87.40
1075;DHT22;526;51.392;12.448;2022-07-22T09:03:56;24.30;87.70
1075;DHT22;526;51.392;12.448;2022-07-22T09:06:24;24.30;88.20
1075;DHT22;526;51.392;12.448;2022-07-22T09:08:55;24.20;88.70
1075;DHT22;526;51.392;12.448;2022-07-22T09:11:24;24.30;88.90
1075;DHT22;526;51.392;12.448;2022-07-22T09:13:50;24.20;89.00
1075;DHT22;526;51.392;12.448;2022-07-22T09:16:40;24.20;88.80
1075;DHT22;526;51.392;12.448;2022-07-22T09:19:07;24.20;88.60
1075;DHT22;526;51.392;12.448;2022-07-22T09:21:35;24.20;88.60
1075;DHT22;526;51.392;12.448;2022-07-22T09:24:02;24.30;88.90
1075;DHT22;526;51.392;12.448;2022-07-22T09:26:36;24.30;88.10
1075;DHT22;526;51.392;12.448;2022-07-22T09:29:04;24.30;87.90
1075;DHT22;526;51.392;12.448;2022-07-22T09:31:35;24.30;88.60
1075;DHT22;526;51.392;12.448;2022-07-22T09:34:01;24.40;88.70
1075;DHT22;526;51.392;12.448;2022-07-22T09:36:28;24.50;88.70
1075;DHT22;526;51.392;12.448;2022-07-22T09:38:53;24.50;87.80
1075;DHT22;526;51.392;12.448;2022-07-22T09:41:20;24.50;88.00
1075;DHT22;526;51.392;12.448;2022-07-22T09:43:45;24.60;87.60
1075;DHT22;526;51.392;12.448;2022-07-22T09:46:11;24.60;87.50
1075;DHT22;526;51.392;12.448;2022-07-22T09:48:38;24.70;87.40
1075;DHT22;526;51.392;12.448;2022-07-22T09:51:04;24.60;87.30
1075;DHT22;526;51.392;12.448;2022-07-22T09:53:31;24.60;87.60
1075;DHT22;526;51.392;12.448;2022-07-22T09:56:03;24.60;87.80
1075;DHT22;526;51.392;12.448;2022-07-22T09:58:29;24.60;87.70
1075;DHT22;526;51.392;12.448;2022-07-22T10:00:58;24.60;88.00
1075;DHT22;526;51.392;12.448;2022-07-22T10:03:33;24.60;88.50
1075;DHT22;526;51.392;12.448;2022-07-22T10:06:00;24.60;88.30
1075;DHT22;526;51.392;12.448;2022-07-22T10:08:27;24.60;88.40
1075;DHT22;526;51.392;12.448;2022-07-22T10:10:58;24.60;88.50
1075;DHT22;526;51.392;12.448;2022-07-22T10:13:24;24.60;88.50
1075;DHT22;526;51.392;12.448;2022-07-22T10:15:49;24.60;88.70
1075;DHT22;526;51.392;12.448;2022-07-22T10:18:17;24.70;88.50
1075;DHT22;526;51.392;12.448;2022-07-22T10:20:44;24.70;88.70
1075;DHT22;526;51.392;12.448;2022-07-22T10:23:11;24.80;87.60
1075;DHT22;526;51.392;12.448;2022-07-22T10:25:54;24.80;87.80
1075;DHT22;526;51.392;12.448;2022-07-22T10:28:26;24.80;87.80
1075;DHT22;526;51.392;12.448;2022-07-22T10:30:52;24.80;88.90
1075;DHT22;526;51.392;12.448;2022-07-22T10:33:20;24.70;89.50
1075;DHT22;526;51.392;12.448;2022-07-22T10:35:59;24.60;89.60
1075;DHT22;526;51.392;12.448;2022-07-22T10:38:26;24.60;89.90
1075;DHT22;526;51.392;12.448;2022-07-22T10:46:06;24.50;90.60
1075;DHT22;526;51.392;12.448;2022-07-22T10:51:10;24.50;90.40
1075;DHT22;526;51.392;12.448;2022-07-22T10:56:16;24.60;90.70
1075;DHT22;526;51.392;12.448;2022-07-22T10:58:58;24.70;91.00
1075;DHT22;526;51.392;12.448;2022-07-22T11:01:29;24.90;91.10
1075;DHT22;526;51.392;12.448;2022-07-22T11:03:56;25.10;89.80
1075;DHT22;526;51.392;12.448;2022-07-22T11:06:31;25.20;89.00
1075;DHT22;526;51.392;12.448;2022-07-22T11:09:06;25.30;89.80
1075;DHT22;526;51.392;12.448;2022-07-22T11:11:41;25.40;89.30
1075;DHT22;526;51.392;12.448;2022-07-22T11:16:51;25.60;88.90
1075;DHT22;526;51.392;12.448;2022-07-22T11:19:22;25.70;88.40
1075;DHT22;526;51.392;12.448;2022-07-22T11:21:56;25.90;87.70
1075;DHT22;526;51.392;12.448;2022-07-22T11:24:24;25.80;87.60
1075;DHT22;526;51.392;12.448;2022-07-22T11:26:52;25.70;87.60
1075;DHT22;526;51.392;12.448;2022-07-22T11:31:50;25.60;87.30
1075;DHT22;526;51.392;12.448;2022-07-22T11:34:16;25.70;87.20
1075;DHT22;526;51.392;12.448;2022-07-22T11:36:44;25.80;87.30
1075;DHT22;526;51.392;12.448;2022-07-22T11:39:12;25.70;86.90
1075;DHT22;526;51.392;12.448;2022-07-22T11:41:38;25.70;87.30
1075;DHT22;526;51.392;12.448;2022-07-22T11:44:05;25.80;88.20
1075;DHT22;526;51.392;12.448;2022-07-22T11:46:41;25.80;87.60
1075;DHT22;526;51.392;12.448;2022-07-22T11:49:08;25.80;87.00
1075;DHT22;526;51.392;12.448;2022-07-22T11:51:36;25.80;86.70
1075;DHT22;526;51.392;12.448;2022-07-22T11:54:03;25.80;86.30
1075;DHT22;526;51.392;12.448;2022-07-22T11:56:30;25.80;86.70
1075;DHT22;526;51.392;12.448;2022-07-22T11:58:56;25.80;86.50
1075;DHT22;526;51.392;12.448;2022-07-22T12:01:28;25.80;86.70
1075;DHT22;526;51.392;12.448;2022-07-22T12:04:06;25.90;86.50
1075;DHT22;526;51.392;12.448;2022-07-22T12:06:33;26.00;86.20
1075;DHT22;526;51.392;12.448;2022-07-22T12:11:28;26.00;85.90
1075;DHT22;526;51.392;12.448;2022-07-22T12:13:54;26.00;85.80
1075;DHT22;526;51.392;12.448;2022-07-22T12:16:29;26.00;87.00
1075;DHT22;526;51.392;12.448;2022-07-22T12:19:03;26.00;86.50
1075;DHT22;526;51.392;12.448;2022-07-22T12:21:31;26.10;86.50
1075;DHT22;526;51.392;12.448;2022-07-22T12:24:02;26.20;86.60
1075;DHT22;526;51.392;12.448;2022-07-22T12:26:43;26.30;87.90
1075;DHT22;526;51.392;12.448;2022-07-22T12:31:53;26.80;84.80
1075;DHT22;526;51.392;12.448;2022-07-22T12:36:59;27.30;83.60
1075;DHT22;526;51.392;12.448;2022-07-22T12:39:25;27.40;83.10
1075;DHT22;526;51.392;12.448;2022-07-22T12:41:53;27.60;82.80
1075;DHT22;526;51.392;12.448;2022-07-22T12:44:24;27.80;83.10
1075;DHT22;526;51.392;12.448;2022-07-22T12:46:52;27.90;81.80
1075;DHT22;526;51.392;12.448;2022-07-22T12:49:20;28.10;81.30
1075;DHT22;526;51.392;12.448;2022-07-22T12:52:10;28.20;81.00
1075;DHT22;526;51.392;12.448;2022-07-22T12:54:37;28.40;80.50
1075;DHT22;526;51.392;12.448;2022-07-22T12:57:05;28.40;80.20
1075;DHT22;526;51.392;12.448;2022-07-22T12:59:31;28.30;80.50
1075;DHT22;526;51.392;12.448;2022-07-22T13:01:56;28.10;80.10
1075;DHT22;526;51.392;12.448;2022-07-22T13:04:22;27.90;80.40
1075;DHT22;526;51.392;12.448;2022-07-22T13:06:48;27.90;81.30
1075;DHT22;526;51.392;12.448;2022-07-22T13:09:14;27.90;81.20
1075;DHT22;526;51.392;12.448;2022-07-22T13:11:40;27.80;81.30
1075;DHT22;526;51.392;12.448;2022-07-22T13:14:09;27.70;81.10
1075;DHT22;526;51.392;12.448;2022-07-22T13:16:35;27.80;81.40
1075;DHT22;526;51.392;12.448;2022-07-22T13:19:01;28.00;81.30
1075;DHT22;526;51.392;12.448;2022-07-22T13:21:26;28.20;80.50
1075;DHT22;526;51.392;12.448;2022-07-22T13:23:52;28.40;79.60
1075;DHT22;526;51.392;12.448;2022-07-22T13:26:17;28.60;80.10
1075;DHT22;526;51.392;12.448;2022-07-22T13:28:43;28.60;79.80
1075;DHT22;526;51.392;12.448;2022-07-22T13:31:09;28.80;79.80
1075;DHT22;526;51.392;12.448;2022-07-22T13:33:35;29.10;80.40
1075;DHT22;526;51.392;12.448;2022-07-22T13:36:02;29.30;78.30
1075;DHT22;526;51.392;12.448;2022-07-22T13:38:27;29.30;77.80
1075;DHT22;526;51.392;12.448;2022-07-22T13:40:53;29.40;78.10
1075;DHT22;526;51.392;12.448;2022-07-22T13:43:19;29.50;76.80
1075;DHT22;526;51.392;12.448;2022-07-22T13:45:45;29.20;76.90
1075;DHT22;526;51.392;12.448;2022-07-22T13:48:11;29.10;77.50
1075;DHT22;526;51.392;12.448;2022-07-22T13:50:37;29.20;77.80
1075;DHT22;526;51.392;12.448;2022-07-22T13:53:02;29.50;78.30
1075;DHT22;526;51.392;12.448;2022-07-22T13:55:28;29.80;77.80
1075;DHT22;526;51.392;12.448;2022-07-22T13:57:55;30.00;75.60
1075;DHT22;526;51.392;12.448;2022-07-22T14:00:23;30.20;76.10
1075;DHT22;526;51.392;12.448;2022-07-22T14:02:49;30.30;75.80
1075;DHT22;526;51.392;12.448;2022-07-22T14:05:16;30.30;75.60
1075;DHT22;526;51.392;12.448;2022-07-22T14:07:41;30.40;74.90
1075;DHT22;526;51.392;12.448;2022-07-22T14:10:08;30.40;74.70
1075;DHT22;526;51.392;12.448;2022-07-22T14:12:34;30.60;74.80
1075;DHT22;526;51.392;12.448;2022-07-22T14:15:00;30.70;74.20
1075;DHT22;526;51.392;12.448;2022-07-22T14:17:26;30.80;74.60
1075;DHT22;526;51.392;12.448;2022-07-22T14:19:51;30.90;74.80
1075;DHT22;526;51.392;12.448;2022-07-22T14:22:17;31.00;73.10
1075;DHT22;526;51.392;12.448;2022-07-22T14:24:42;31.10;73.10
1075;DHT22;526;51.392;12.448;2022-07-22T14:27:08;31.20;73.40
1075;DHT22;526;51.392;12.448;2022-07-22T14:29:33;31.20;74.00
1075;DHT22;526;51.392;12.448;2022-07-22T14:31:59;31.30;73.70
1075;DHT22;526;51.392;12.448;2022-07-22T14:34:24;31.40;73.00
1075;DHT22;526;51.392;12.448;2022-07-22T14:36:50;31.40;73.90
1075;DHT22;526;51.392;12.448;2022-07-22T14:39:16;31.50;73.70
1075;DHT22;526;51.392;12.448;2022-07-22T14:41:41;31.40;73.70
1075;DHT22;526;51.392;12.448;2022-07-22T14:44:07;31.50;73.60
1075;DHT22;526;51.392;12.448;2022-07-22T14:46:32;31.70;74.20
1075;DHT22;526;51.392;12.448;2022-07-22T14:48:58;31.80;72.70
1075;DHT22;526;51.392;12.448;2022-07-22T14:51:24;31.80;71.80
1075;DHT22;526;51.392;12.448;2022-07-22T14:53:50;31.50;72.00
1075;DHT22;526;51.392;12.448;2022-07-22T14:56:16;31.30;72.20
1075;DHT22;526;51.392;12.448;2022-07-22T14:58:42;31.20;72.80
1075;DHT22;526;51.392;12.448;2022-07-22T15:01:07;31.20;73.30
1075;DHT22;526;51.392;12.448;2022-07-22T15:03:33;31.40;73.00
1075;DHT22;526;51.392;12.448;2022-07-22T15:05:58;31.30;72.50
1075;DHT22;526;51.392;12.448;2022-07-22T15:08:24;31.30;73.10
1075;DHT22;526;51.392;12.448;2022-07-22T15:10:49;31.30;72.20
1075;DHT22;526;51.392;12.448;2022-07-22T15:13:15;31.30;72.70
1075;DHT22;526;51.392;12.448;2022-07-22T15:15:41;31.30;72.30
1075;DHT22;526;51.392;12.448;2022-07-22T15:18:07;31.30;72.20
1075;DHT22;526;51.392;12.448;2022-07-22T15:20:33;31.40;72.90
1075;DHT22;526;51.392;12.448;2022-07-22T15:23:00;31.60;72.70
1075;DHT22;526;51.392;12.448;2022-07-22T15:25:25;31.60;71.90
1075;DHT22;526;51.392;12.448;2022-07-22T15:27:51;31.70;72.10
1075;DHT22;526;51.392;12.448;2022-07-22T15:30:17;31.60;72.60
1075;DHT22;526;51.392;12.448;2022-07-22T15:32:43;31.70;72.10
1075;DHT22;526;51.392;12.448;2022-07-22T15:35:09;31.60;71.30
1075;DHT22;526;51.392;12.448;2022-07-22T15:37:34;31.40;72.30
1075;DHT22;526;51.392;12.448;2022-07-22T15:40:03;31.40;72.80
1075;DHT22;526;51.392;12.448;2022-07-22T15:42:29;31.50;72.30
1075;DHT22;526;51.392;12.448;2022-07-22T15:44:54;31.50;72.80
1075;DHT22;526;51.392;12.448;2022-07-22T15:47:20;31.50;71.30
1075;DHT22;526;51.392;12.448;2022-07-22T15:49:46;31.40;71.60
1075;DHT22;526;51.392;12.448;2022-07-22T15:52:11;31.40;71.90
1075;DHT22;526;51.392;12.448;2022-07-22T15:54:37;31.40;71.80
1075;DHT22;526;51.392;12.448;2022-07-22T15:57:06;31.40;72.10
1075;DHT22;526;51.392;12.448;2022-07-22T15:59:50;31.50;71.90
1075;DHT22;526;51.392;12.448;2022-07-22T16:02:16;31.50;72.30
1075;DHT22;526;51.392;12.448;2022-07-22T16:04:41;31.50;72.10
1075;DHT22;526;51.392;12.448;2022-07-22T16:07:07;31.40;72.50
1075;DHT22;526;51.392;12.448;2022-07-22T16:09:32;31.30;73.00
1075;DHT22;526;51.392;12.448;2022-07-22T16:11:58;31.30;72.70
1075;DHT22;526;51.392;12.448;2022-07-22T16:14:24;31.20;72.10
1075;DHT22;526;51.392;12.448;2022-07-22T16:16:49;31.10;73.00
1075;DHT22;526;51.392;12.448;2022-07-22T16:19:15;31.00;73.00
1075;DHT22;526;51.392;12.448;2022-07-22T16:21:41;30.90;73.20